Time;durP1;ratioP1;P1;durP2;ratioP2;P2;SDS_P1;SDS_P2;PMS_P1;PMS_P2;Temp;Humidity;BMP_temperature;BMP_pressure;BME280_temperature;BME280_humidity;BME280_pressure;Samples;Min_cycle;Max_cycle;Signal;HPM_P1;HPM_P2
2022/09/08 00:00:20;;;;;;;17.70;12.00;;;;;;;11.86;100.00;97597.94;110084;1248;59766;-70
2022/09/08 00:03:05;;;;;;;16.90;12.40;;;;;;;11.80;100.00;97595.23;110060;1250;70746;-69
2022/09/08 00:05:40;;;;;;;13.30;9.60;;;;;;;11.70;100.00;97595.23;110082;1247;68602;-69
2022/09/08 00:08:09;;;;;;;15.30;10.90;;;;;;;11.64;100.00;97592.06;110122;1247;69250;-69
2022/09/08 00:10:40;;;;;;;12.50;9.90;;;;;;;11.59;100.00;97587.02;110016;1248;59761;-69
2022/09/08 00:13:10;;;;;;;11.70;8.70;;;;;;;11.55;100.00;97587.11;109893;1248;59694;-70
2022/09/08 00:15:39;;;;;;;;;;;;;;;11.57;100.00;97584.06;110117;1247;71526;-71
2022/09/08 00:18:09;;;;;;;11.20;8.50;;;;;;;11.56;100.00;97585.85;110226;1247;67786;-68
2022/09/08 00:20:38;;;;;;;12.20;10.70;;;;;;;11.54;100.00;97585.09;110184;1248;68498;-69
2022/09/08 00:23:08;;;;;;;14.80;10.30;;;;;;;11.52;100.00;97583.73;110060;1247;59692;-69
2022/09/08 00:25:38;;;;;;;11.90;9.00;;;;;;;11.50;100.00;97581.73;110079;1247;59677;-69
2022/09/08 00:28:09;;;;;;;10.40;8.20;;;;;;;11.50;100.00;97583.36;107893;1249;2687426;-70
2022/09/08 00:30:40;;;;;;;10.20;8.10;;;;;;;11.49;100.00;97588.09;110130;1247;68497;-68
2022/09/08 00:33:10;;;;;;;9.80;7.90;;;;;;;11.50;100.00;97591.33;110105;1247;69364;-68
2022/09/08 00:35:43;;;;;;;;;;;;;;;11.55;100.00;97589.42;110077;1247;59706;-69
2022/09/08 00:38:14;;;;;;;16.40;12.00;;;;;;;11.61;100.00;97586.36;110027;1247;59755;-69
2022/09/08 00:40:47;;;;;;;15.50;10.80;;;;;;;11.64;100.00;97584.38;110032;1248;71081;-69
2022/09/08 00:43:34;;;;;;;14.30;10.30;;;;;;;11.68;100.00;97579.67;109946;1250;69354;-68
2022/09/08 00:46:20;;;;;;;13.90;9.50;;;;;;;11.67;100.00;97580.14;110085;1248;67632;-69
2022/09/08 00:49:11;;;;;;;11.70;8.70;;;;;;;11.64;100.00;97580.02;110080;1247;59771;-69
2022/09/08 00:51:47;;;;;;;14.10;10.20;;;;;;;11.64;100.00;97582.94;110084;1247;59669;-70
2022/09/08 00:54:19;;;;;;;11.20;8.70;;;;;;;11.64;100.00;97582.81;110102;1247;71526;-68
2022/09/08 00:56:50;;;;;;;10.80;8.30;;;;;;;11.61;100.00;97582.52;110032;1247;69418;-68
2022/09/08 00:59:25;;;;;;;8.90;6.70;;;;;;;11.61;100.00;97581.32;110188;1247;68680;-68
2022/09/08 01:01:55;;;;;;;11.40;7.80;;;;;;;11.61;100.00;97581.11;110088;1247;59723;-69
2022/09/08 01:04:27;;;;;;;11.00;7.90;;;;;;;11.63;100.00;97584.05;110148;1247;59724;-72
2022/09/08 01:13:12;;;;;;;13.30;9.80;;;;;;;11.73;100.00;97581.03;110039;1247;68750;-70
2022/09/08 01:15:42;;;;;;;12.10;8.90;;;;;;;11.76;100.00;97579.12;109818;1250;59676;-69
2022/09/08 01:18:13;;;;;;;10.60;8.00;;;;;;;11.80;100.00;97577.61;110192;1247;59686;-69
2022/09/08 01:20:53;;;;;;;9.00;7.70;;;;;;;11.84;99.99;97571.39;110068;1247;70768;-69
2022/09/08 01:23:56;;;;;;;11.10;7.80;;;;;;;11.89;98.73;97569.13;109947;1250;68674;-68
2022/09/08 01:26:37;;;;;;;13.00;10.10;;;;;;;11.92;99.16;97571.46;110025;1247;68544;-69
2022/09/08 01:29:09;;;;;;;11.50;8.70;;;;;;;11.94;100.00;97574.49;110138;1250;59774;-70
2022/09/08 01:31:42;;;;;;;12.50;8.80;;;;;;;11.93;99.88;97570.75;110114;1248;59624;-69
2022/09/08 01:34:12;;;;;;;11.40;8.40;;;;;;;11.93;99.95;97569.67;110108;1247;70611;-69
2022/09/08 01:36:42;;;;;;;9.60;7.60;;;;;;;11.95;100.00;97572.15;110111;1247;68581;-70
2022/09/08 01:39:12;;;;;;;11.70;9.00;;;;;;;11.96;100.00;97568.86;110066;1247;68671;-69
2022/09/08 01:41:44;;;;;;;11.60;8.80;;;;;;;11.97;100.00;97566.39;110060;1249;59691;-69
2022/09/08 01:44:14;;;;;;;8.30;7.20;;;;;;;11.97;100.00;97567.05;110032;1247;59742;-69
2022/09/08 01:46:45;;;;;;;8.40;7.00;;;;;;;11.97;99.79;97564.28;110390;1247;71591;-68
2022/09/08 01:49:15;;;;;;;8.70;6.60;;;;;;;11.99;98.40;97563.62;110278;1247;68918;-69
2022/09/08 01:51:46;;;;;;;13.20;10.50;;;;;;;12.02;98.14;97560.61;110182;1247;69415;-69
2022/09/08 01:54:16;;;;;;;10.60;8.90;;;;;;;12.04;98.82;97559.90;110168;1247;59670;-70
2022/09/08 01:56:46;;;;;;;12.60;9.70;;;;;;;12.06;99.68;97560.98;110221;1247;59696;-69
2022/09/08 01:59:18;;;;;;;13.60;11.10;;;;;;;12.07;99.01;97558.32;110228;1247;70781;-69
2022/09/08 02:01:49;;;;;;;13.40;9.90;;;;;;;12.08;99.87;97561.15;110260;1247;69422;-71
2022/09/08 02:04:20;;;;;;;11.30;9.60;;;;;;;12.11;99.05;97554.65;110149;1248;69415;-70
2022/09/08 02:06:51;;;;;;;;;;;;;;;12.13;99.62;97552.90;110277;1247;59688;-68
2022/09/08 02:09:22;;;;;;;11.60;8.60;;;;;;;12.11;99.73;97553.13;110156;1247;59681;-70
2022/09/08 02:11:52;;;;;;;13.00;8.80;;;;;;;12.08;99.73;97553.17;110241;1247;71518;-69
2022/09/08 02:14:23;;;;;;;10.20;8.30;;;;;;;12.04;99.31;97556.92;110133;1248;69450;-69
2022/09/08 02:16:54;;;;;;;9.00;7.10;;;;;;;12.04;99.21;97559.05;110112;1247;68730;-68
2022/09/08 02:19:25;;;;;;;9.70;7.20;;;;;;;12.04;99.84;97561.69;110133;1247;59759;-69
2022/09/08 02:21:54;;;;;;;8.80;6.40;;;;;;;12.02;100.00;97561.83;110255;1247;60160;-69
2022/09/08 02:24:24;;;;;;;9.60;6.80;;;;;;;12.01;99.96;97562.58;110090;1247;71473;-68
2022/09/08 02:26:53;;;;;;;;;;;;;;;12.01;99.59;97556.53;110272;1247;68500;-69
2022/09/08 02:29:24;;;;;;;9.40;6.50;;;;;;;11.99;99.86;97556.47;110102;1247;69148;-69
2022/09/08 02:31:54;;;;;;;7.90;6.10;;;;;;;11.98;100.00;97559.48;110162;1247;59719;-68
2022/09/08 02:34:25;;;;;;;8.40;6.60;;;;;;;11.98;100.00;97556.85;110283;1247;59631;-69
2022/09/08 02:36:56;;;;;;;10.20;7.60;;;;;;;11.97;100.00;97552.56;110209;1248;71443;-70
2022/09/08 02:39:26;;;;;;;12.30;9.20;;;;;;;11.97;100.00;97553.27;110177;1247;68455;-69
2022/09/08 02:41:56;;;;;;;11.20;9.30;;;;;;;11.97;100.00;97551.73;110157;1247;68709;-68
2022/09/08 02:44:26;;;;;;;9.80;7.40;;;;;;;11.98;100.00;97554.80;110046;1247;59769;-70
2022/09/08 02:46:56;;;;;;;9.80;7.70;;;;;;;11.98;100.00;97550.39;110192;1247;59650;-69
2022/09/08 02:49:26;;;;;;;10.80;9.20;;;;;;;11.98;100.00;97543.98;110137;1247;71503;-68
2022/09/08 02:51:55;;;;;;;11.00;9.80;;;;;;;11.97;100.00;97542.26;110207;1247;69391;-69
2022/09/08 02:54:26;;;;;;;6.90;6.20;;;;;;;11.96;100.00;97545.80;110174;1250;69243;-69
2022/09/08 02:56:56;;;;;;;9.60;8.20;;;;;;;11.95;100.00;97544.31;110058;1248;59817;-69
2022/09/08 02:59:26;;;;;;;;;;;;;;;11.94;100.00;97546.01;110182;1247;59688;-70
2022/09/08 03:01:58;;;;;;;11.40;8.70;;;;;;;11.92;100.00;97547.57;110337;1247;71530;-70
2022/09/08 03:04:28;;;;;;;9.90;8.50;;;;;;;11.90;100.00;97548.79;110240;1247;68713;-70
2022/09/08 03:06:57;;;;;;;;;;;;;;;11.88;100.00;97547.71;110270;1247;69414;-69
2022/09/08 03:09:26;;;;;;;11.20;9.30;;;;;;;11.86;100.00;97543.13;110281;1247;59697;-69
2022/09/08 03:11:56;;;;;;;12.10;8.50;;;;;;;11.81;100.00;97545.09;110225;1247;59689;-70
2022/09/08 03:14:26;;;;;;;12.40;9.70;;;;;;;11.74;100.00;97546.08;110125;1247;71572;-70
2022/09/08 03:16:56;;;;;;;10.90;8.70;;;;;;;11.69;99.97;97547.15;110194;1248;69310;-71
2022/09/08 03:19:26;;;;;;;13.60;9.80;;;;;;;11.64;100.00;97543.51;110219;1248;69696;-69
2022/09/08 03:21:56;;;;;;;14.30;10.90;;;;;;;11.61;100.00;97540.61;110001;1248;60190;-68
2022/09/08 03:24:26;;;;;;;13.20;9.90;;;;;;;11.56;100.00;97536.40;110126;1247;59673;-69
2022/09/08 03:26:55;;;;;;;;;;;;;;;11.54;100.00;97532.36;110149;1247;70970;-69
2022/09/08 03:29:24;;;;;;;10.50;7.80;;;;;;;11.52;100.00;97533.66;110191;1248;69412;-70
2022/09/08 03:31:58;;;;;;;10.00;7.10;;;;;;;11.48;100.00;97535.79;110189;1249;68728;-70
2022/09/08 03:34:27;;;;;;;8.80;7.50;;;;;;;11.46;100.00;97534.20;110166;1247;59683;-69
2022/09/08 03:36:57;;;;;;;10.90;8.80;;;;;;;11.44;100.00;97534.02;110093;1247;59759;-70
2022/09/08 03:39:26;;;;;;;;;;;;;;;11.40;100.00;97532.73;110076;1248;71440;-69
2022/09/08 03:41:56;;;;;;;12.10;8.30;;;;;;;11.36;100.00;97529.55;110108;1248;69427;-69
2022/09/08 03:44:25;;;;;;;13.90;10.70;;;;;;;11.33;100.00;97527.49;109995;1247;69370;-71
2022/09/08 03:46:55;;;;;;;13.10;10.80;;;;;;;11.32;100.00;97527.23;110069;1250;59661;-70
2022/09/08 03:49:25;;;;;;;12.90;9.60;;;;;;;11.32;100.00;97529.72;110214;1247;59675;-68
2022/09/08 03:51:54;;;;;;;14.50;9.70;;;;;;;11.32;100.00;97534.24;110132;1248;71503;-69
2022/09/08 03:57:11;;;;;;;16.70;12.50;;;;;;;11.32;100.00;97528.09;110129;1248;68851;-69
2022/09/08 03:59:44;;;;;;;12.10;9.90;;;;;;;11.32;100.00;97531.60;110210;1248;59700;-68
2022/09/08 04:02:14;;;;;;;14.60;9.50;;;;;;;11.32;100.00;97535.94;110174;1247;59647;-69
2022/09/08 04:04:47;;;;;;;13.10;9.10;;;;;;;11.32;100.00;97536.29;110154;1247;69984;-68
2022/09/08 04:07:19;;;;;;;13.50;9.80;;;;;;;11.34;100.00;97536.58;110205;1248;69223;-68
2022/09/08 04:09:48;;;;;;;14.10;11.60;;;;;;;11.35;100.00;97543.09;110150;1247;68597;-70
2022/09/08 04:12:18;;;;;;;12.80;8.80;;;;;;;11.36;100.00;97547.89;110090;1247;59776;-71
2022/09/08 04:14:51;;;;;;;13.90;9.80;;;;;;;11.37;100.00;97552.14;110158;1248;59716;-69
2022/09/08 04:17:21;;;;;;;11.00;8.40;;;;;;;11.40;100.00;97552.63;110021;1248;71606;-69
2022/09/08 04:19:51;;;;;;;12.20;9.40;;;;;;;11.43;100.00;97551.73;109995;1250;68637;-69
2022/09/08 04:22:25;;;;;;;11.10;8.60;;;;;;;11.47;100.00;97549.17;109976;1250;68632;-68
2022/09/08 04:24:54;;;;;;;12.40;8.80;;;;;;;11.50;100.00;97549.61;110030;1250;59777;-70
2022/09/08 04:27:25;;;;;;;14.60;10.40;;;;;;;11.53;100.00;97549.08;110026;1248;59692;-70
2022/09/08 04:29:54;;;;;;;10.80;8.10;;;;;;;11.56;100.00;97550.45;110065;1247;70821;-70
2022/09/08 04:32:24;;;;;;;11.00;8.10;;;;;;;11.59;100.00;97552.63;110015;1250;68618;-69
2022/09/08 04:34:53;;;;;;;;;;;;;;;11.62;100.00;97553.08;110064;1248;69244;-68
2022/09/08 04:37:22;;;;;;;12.90;9.70;;;;;;;11.60;100.00;97556.89;110039;1250;59768;-69
2022/09/08 04:39:51;;;;;;;11.80;9.10;;;;;;;11.58;100.00;97553.23;110081;1250;59656;-69
2022/09/08 04:42:23;;;;;;;;;;;;;;;11.58;100.00;97550.60;110034;1249;71339;-69
2022/09/08 04:44:53;;;;;;;15.80;10.00;;;;;;;11.58;100.00;97549.43;110022;1248;68452;-69
2022/09/08 04:47:22;;;;;;;12.40;9.90;;;;;;;11.57;100.00;97554.55;110095;1248;69309;-68
2022/09/08 04:49:52;;;;;;;10.90;9.40;;;;;;;11.58;100.00;97555.30;109742;1250;59796;-69
2022/09/08 04:52:24;;;;;;;13.30;10.30;;;;;;;11.61;100.00;97559.27;110027;1247;59646;-69
2022/09/08 04:54:59;;;;;;;10.70;8.40;;;;;;;11.64;100.00;97560.98;109996;1248;70804;-70
2022/09/08 04:57:29;;;;;;;13.40;9.40;;;;;;;11.70;100.00;97554.42;110126;1248;69400;-68
2022/09/08 04:59:58;;;;;;;10.20;9.20;;;;;;;11.78;100.00;97556.10;109955;1250;68534;-70
2022/09/08 05:02:28;;;;;;;11.40;8.90;;;;;;;11.85;100.00;97557.86;110037;1247;60122;-69
2022/09/08 05:04:57;;;;;;;;;;;;;;;11.93;100.00;97559.66;109832;1250;59701;-69
2022/09/08 05:07:27;;;;;;;10.40;8.20;;;;;;;12.01;100.00;97562.08;110032;1247;71144;-70
2022/09/08 05:09:56;;;;;;;9.80;7.60;;;;;;;12.09;100.00;97560.77;110144;1247;69257;-71
2022/09/08 05:12:26;;;;;;;10.80;8.80;;;;;;;12.15;100.00;97560.80;110020;1247;69243;-70
2022/09/08 05:14:55;;;;;;;;;;;;;;;12.21;100.00;97560.33;110132;1247;59679;-70
2022/09/08 05:17:24;;;;;;;7.80;6.90;;;;;;;12.28;100.00;97558.64;110150;1247;59680;-70
2022/09/08 05:19:53;;;;;;;9.20;7.40;;;;;;;12.36;99.92;97562.00;110078;1250;70698;-68
2022/09/08 05:22:23;;;;;;;9.50;8.50;;;;;;;12.46;99.65;97564.69;110067;1248;69362;-70
2022/09/08 05:24:52;;;;;;;10.40;8.40;;;;;;;12.69;99.64;97569.17;110067;1248;69419;-70
2022/09/08 05:27:21;;;;;;;10.70;7.70;;;;;;;12.98;99.30;97567.56;110072;1248;59740;-70
2022/09/08 05:29:51;;;;;;;9.80;7.90;;;;;;;13.34;99.01;97570.16;109998;1248;59688;-72
2022/09/08 05:32:20;;;;;;;;;;;;;;;13.62;94.53;97569.02;110117;1248;71560;-71
2022/09/08 05:34:52;;;;;;;9.20;7.90;;;;;;;13.87;92.07;97572.10;110155;1248;69422;-72
2022/09/08 05:37:36;;;;;;;8.20;6.80;;;;;;;14.02;90.77;97569.55;110068;1248;68237;-70
2022/09/08 05:40:12;;;;;;;8.50;7.50;;;;;;;14.27;89.43;97569.56;110082;1248;59755;-71
2022/09/08 05:42:49;;;;;;;6.90;6.00;;;;;;;14.57;88.88;97571.61;110080;1247;59611;-71
2022/09/08 05:45:25;;;;;;;7.40;6.10;;;;;;;14.87;87.56;97575.83;110073;1247;70912;-71
2022/09/08 05:48:01;;;;;;;6.60;5.40;;;;;;;15.28;86.24;97583.23;110034;1248;68597;-72
2022/09/08 05:50:41;;;;;;;6.90;5.90;;;;;;;15.68;84.86;97579.98;110057;1245;68456;-71
2022/09/08 05:53:23;;;;;;;6.50;5.80;;;;;;;16.10;82.69;97578.80;110026;1250;59702;-72
2022/09/08 05:56:04;;;;;;;7.50;6.40;;;;;;;16.46;81.83;97578.41;109880;1250;59679;-71
2022/09/08 05:58:41;;;;;;;7.30;5.70;;;;;;;16.76;79.13;97575.38;110197;1247;69960;-72
2022/09/08 06:01:26;;;;;;;6.50;5.40;;;;;;;17.05;76.96;97574.44;110247;1250;68819;-70
2022/09/08 06:04:02;;;;;;;6.40;5.70;;;;;;;17.47;75.63;97576.48;110161;1251;68539;-72
2022/09/08 06:06:38;;;;;;;5.90;5.30;;;;;;;17.85;74.64;97579.06;110394;1247;59725;-71
2022/09/08 06:09:12;;;;;;;6.10;5.50;;;;;;;18.11;72.39;97575.75;110068;1247;59754;-72
2022/09/08 06:11:47;;;;;;;7.20;5.80;;;;;;;18.33;71.41;97575.44;109870;1250;71595;-72
2022/09/08 06:14:23;;;;;;;6.00;5.40;;;;;;;18.37;70.66;97574.40;110030;1250;68448;-72
2022/09/08 06:17:01;;;;;;;6.00;5.40;;;;;;;18.71;69.81;97575.15;109862;1248;68646;-71
2022/09/08 06:19:34;;;;;;;6.20;5.60;;;;;;;18.63;68.98;97579.95;110125;1248;59678;-72
2022/09/08 06:22:04;;;;;;;5.10;4.60;;;;;;;19.14;68.48;97584.97;110107;1248;59688;-72
2022/09/08 06:24:33;;;;;;;6.10;5.50;;;;;;;19.20;67.62;97584.52;109990;1250;71571;-72
2022/09/08 06:27:31;;;;;;;6.40;5.70;;;;;;;19.60;67.80;97586.65;110096;1247;69184;-73
2022/09/08 06:30:12;;;;;;;5.30;4.80;;;;;;;19.70;67.33;97588.95;110136;1250;68449;-73
2022/09/08 06:32:53;;;;;;;5.20;4.30;;;;;;;20.28;67.51;97585.25;109687;1250;59707;-71
2022/09/08 06:35:31;;;;;;;7.20;5.40;;;;;;;20.39;63.45;97584.90;110056;1248;59741;-68
2022/09/08 06:38:14;;;;;;;5.50;4.90;;;;;;;20.47;62.51;97587.80;110095;1247;71630;-71
2022/09/08 06:40:56;;;;;;;6.60;6.00;;;;;;;20.60;62.80;97585.33;110115;1250;68308;-70
2022/09/08 06:43:45;;;;;;;6.30;5.50;;;;;;;20.65;62.41;97581.58;110092;1247;67644;-70
2022/09/08 06:46:25;;;;;;;6.10;5.40;;;;;;;20.67;61.62;97581.87;110171;1247;59710;-70
2022/09/08 06:49:03;;;;;;;5.30;4.80;;;;;;;20.83;61.98;97579.93;110204;1247;59698;-69
2022/09/08 06:51:43;;;;;;;8.80;5.80;;;;;;;21.32;62.07;97581.77;110074;1248;70757;-70
2022/09/08 06:54:28;;;;;;;7.00;6.20;;;;;;;21.37;59.72;97581.64;110180;1248;69244;-68
2022/09/08 06:57:15;;;;;;;8.10;6.80;;;;;;;21.36;59.84;97581.70;109992;1250;68611;-68
2022/09/08 06:59:58;;;;;;;6.30;5.70;;;;;;;21.39;59.49;97578.30;110131;1247;59696;-68
2022/09/08 07:02:51;;;;;;;6.90;5.00;;;;;;;21.66;59.32;97575.20;110057;1247;59703;-67
2022/09/08 07:05:23;;;;;;;6.50;5.90;;;;;;;22.07;58.05;97575.38;110108;1247;71340;-66
2022/09/08 07:08:09;;;;;;;12.20;5.30;;;;;;;22.08;58.48;97569.10;110015;1247;69486;-67
2022/09/08 07:11:07;;;;;;;5.30;4.80;;;;;;;22.27;58.22;97570.84;110115;1247;68462;-67
2022/09/08 07:13:45;;;;;;;6.60;5.50;;;;;;;22.86;58.12;97578.13;110141;1247;59700;-67
2022/09/08 07:16:23;;;;;;;6.00;5.40;;;;;;;23.28;57.21;97580.87;110175;1247;59243;-69
2022/09/08 07:19:33;;;;;;;7.20;5.10;;;;;;;23.34;54.86;97577.26;110284;1247;72275;-69
2022/09/08 07:22:33;;;;;;;6.80;5.20;;;;;;;23.65;54.17;97575.55;110156;1247;69319;-69
2022/09/08 07:25:35;;;;;;;4.90;4.50;;;;;;;23.56;53.68;97577.17;110098;1247;69930;-67
2022/09/08 07:28:11;;;;;;;5.20;4.70;;;;;;;23.58;53.67;97580.55;110392;1247;59725;-68
2022/09/08 07:30:41;;;;;;;5.80;5.20;;;;;;;23.94;53.41;97576.38;110157;1247;60120;-69
2022/09/08 07:33:34;;;;;;;5.80;5.20;;;;;;;24.08;53.25;97580.17;110179;1247;71472;-69
2022/09/08 07:36:22;;;;;;;5.60;5.00;;;;;;;23.88;52.33;97579.44;110111;1247;69386;-69
2022/09/08 07:39:00;;;;;;;6.00;5.00;;;;;;;24.10;53.12;97579.98;110279;1247;68571;-70
2022/09/08 07:41:40;;;;;;;4.90;4.40;;;;;;;24.57;52.20;97578.34;110487;1247;59466;-70
2022/09/08 07:44:20;;;;;;;6.10;5.00;;;;;;;24.82;52.03;97585.03;110388;1247;59707;-70
2022/09/08 07:47:15;;;;;;;5.90;4.40;;;;;;;24.69;50.25;97587.95;110336;1247;71977;-71
2022/09/08 07:50:10;;;;;;;6.30;5.40;;;;;;;24.65;49.24;97588.46;110276;1247;68744;-69
2022/09/08 07:53:04;;;;;;;5.30;4.80;;;;;;;24.24;49.73;97592.44;110164;1247;68621;-69
2022/09/08 07:55:41;;;;;;;5.60;4.90;;;;;;;24.79;49.26;97594.72;110205;1247;59659;-72
2022/09/08 07:59:03;;;;;;;5.50;4.60;;;;;;;25.48;48.72;97595.77;110153;1247;59666;-70
2022/09/08 08:02:39;;;;;;;5.50;5.00;;;;;;;25.97;47.36;97597.64;110228;1247;71553;-70
2022/09/08 08:05:26;;;;;;;5.50;4.90;;;;;;;26.19;46.33;97597.69;109569;1254;69514;-70
2022/09/08 08:08:19;;;;;;;4.80;4.30;;;;;;;26.01;46.37;97600.52;110204;1247;69460;-71
2022/09/08 08:11:22;;;;;;;5.60;5.10;;;;;;;26.68;45.69;97600.22;110209;1247;59678;-71
2022/09/08 08:14:00;;;;;;;6.00;5.40;;;;;;;26.36;45.16;97597.20;110220;1247;59669;-69
2022/09/08 08:16:36;;;;;;;5.60;5.10;;;;;;;26.26;44.65;97591.17;110120;1247;70861;-70
2022/09/08 08:19:41;;;;;;;5.60;4.80;;;;;;;26.39;45.24;97587.10;110026;1247;68512;-70
2022/09/08 08:22:32;;;;;;;5.90;4.80;;;;;;;26.33;44.69;97584.41;110090;1247;68543;-70
2022/09/08 08:25:10;;;;;;;6.90;5.60;;;;;;;26.00;44.45;97579.89;110099;1248;59824;-70
2022/09/08 08:27:51;;;;;;;5.60;5.00;;;;;;;25.93;45.45;97572.04;110095;1247;59682;-70
2022/09/08 08:30:22;;;;;;;6.10;5.50;;;;;;;26.16;45.01;97570.09;110125;1247;71420;-69
2022/09/08 08:33:18;;;;;;;5.10;4.60;;;;;;;26.15;44.86;97568.39;110097;1247;68598;-71
2022/09/08 08:35:49;;;;;;;5.10;4.60;;;;;;;26.06;45.04;97565.48;110077;1247;69225;-72
2022/09/08 08:38:41;;;;;;;4.60;4.20;;;;;;;26.63;44.27;97565.83;110064;1248;59672;-71
2022/09/08 08:41:29;;;;;;;8.90;5.70;;;;;;;27.58;42.84;97565.02;110081;1247;59666;-71
2022/09/08 08:44:27;;;;;;;;;;;;;;;27.97;41.60;97560.80;110104;1246;70776;-71
2022/09/08 08:47:29;;;;;;;5.10;4.60;;;;;;;28.16;41.58;97557.48;110104;1247;69572;-71
2022/09/08 08:50:20;;;;;;;4.70;4.30;;;;;;;28.04;41.04;97553.27;110093;1248;68506;-71
2022/09/08 08:52:53;;;;;;;6.80;5.70;;;;;;;28.53;39.34;97549.27;110102;1247;59747;-70
2022/09/08 08:55:43;;;;;;;5.60;5.10;;;;;;;28.91;40.29;97546.49;110137;1247;59665;-71
2022/09/08 08:58:37;;;;;;;5.70;5.20;;;;;;;28.97;38.82;97536.77;110098;1247;71368;-70
2022/09/08 09:01:19;;;;;;;5.80;5.30;;;;;;;29.12;38.26;97532.52;110156;1247;69494;-72
2022/09/08 09:04:04;;;;;;;6.00;5.50;;;;;;;28.95;38.20;97526.92;110103;1248;68965;-72
2022/09/08 09:07:00;;;;;;;5.00;4.50;;;;;;;28.79;38.69;97519.52;110162;1247;59672;-73
2022/09/08 09:09:40;;;;;;;4.90;4.40;;;;;;;29.32;38.31;97514.44;110084;1247;59752;-72
2022/09/08 09:12:14;;;;;;;5.50;5.00;;;;;;;29.66;37.07;97507.13;110266;1247;71650;-71
2022/09/08 09:15:27;;;;;;;6.10;5.50;;;;;;;29.32;36.67;97504.66;110124;1248;69196;-71
2022/09/08 09:18:34;;;;;;;5.20;4.70;;;;;;;29.82;35.92;97500.95;110066;1247;68766;-70
2022/09/08 09:21:06;;;;;;;5.80;4.80;;;;;;;29.68;35.95;97503.62;110053;1247;59656;-71
2022/09/08 09:24:04;;;;;;;5.00;4.50;;;;;;;30.34;36.37;97508.33;110116;1247;59689;-70
2022/09/08 09:26:35;;;;;;;5.30;4.80;;;;;;;30.91;35.00;97504.19;110030;1247;71693;-70
2022/09/08 09:29:21;;;;;;;5.80;5.20;;;;;;;31.23;34.44;97500.15;110086;1247;68647;-70
2022/09/08 09:32:20;;;;;;;5.70;5.20;;;;;;;31.54;34.18;97497.08;110070;1247;68692;-69
2022/09/08 09:35:23;;;;;;;5.30;4.80;;;;;;;31.82;33.88;97494.70;110077;1247;59750;-69
2022/09/08 09:38:11;;;;;;;5.30;4.80;;;;;;;31.61;32.53;97494.95;109701;1248;59681;-69
2022/09/08 09:41:06;;;;;;;5.00;4.50;;;;;;;31.79;31.96;97491.41;110068;1248;71351;-70
2022/09/08 09:43:40;;;;;;;4.10;3.70;;;;;;;31.73;32.88;97495.30;110026;1247;69434;-71
2022/09/08 09:46:40;;;;;;;4.10;3.70;;;;;;;32.62;32.56;97489.41;110075;1247;69360;-71
2022/09/08 09:49:25;;;;;;;5.30;4.80;;;;;;;32.46;31.17;97487.36;110113;1247;59842;-72
2022/09/08 09:52:22;;;;;;;4.80;4.20;;;;;;;32.96;30.82;97487.80;110171;1247;59735;-71
2022/09/08 09:55:13;;;;;;;5.20;4.70;;;;;;;33.11;30.28;97483.33;110110;1247;71649;-71
2022/09/08 09:58:03;;;;;;;5.20;4.70;;;;;;;32.79;29.86;97474.98;110087;1247;69260;-72
2022/09/08 10:01:05;;;;;;;4.00;3.60;;;;;;;33.03;30.99;97473.52;110170;1247;68942;-70
2022/09/08 10:03:47;;;;;;;4.70;4.10;;;;;;;33.40;29.42;97476.70;110134;1247;59692;-72
2022/09/08 10:06:35;;;;;;;4.60;4.20;;;;;;;33.53;29.97;97473.31;110058;1247;59692;-72
2022/09/08 10:09:41;;;;;;;4.90;4.40;;;;;;;32.69;29.46;97468.42;110111;1247;70749;-71
2022/09/08 10:12:34;;;;;;;5.90;5.30;;;;;;;32.63;30.32;97466.77;110127;1247;69394;-72
2022/09/08 10:15:06;;;;;;;4.90;4.20;;;;;;;31.71;32.01;97467.34;110044;1247;68628;-73
2022/09/08 10:17:49;;;;;;;5.60;4.60;;;;;;;31.85;32.54;97469.94;110059;1247;59767;-72
2022/09/08 10:20:37;;;;;;;4.40;4.00;;;;;;;31.84;31.43;97471.76;110081;1247;59672;-72
2022/09/08 10:23:36;;;;;;;5.50;4.50;;;;;;;31.48;31.58;97477.84;110075;1248;70801;-72
2022/09/08 10:26:17;;;;;;;5.10;4.10;;;;;;;32.80;30.20;97473.31;110081;1247;69343;-72
2022/09/08 10:29:10;;;;;;;4.00;3.40;;;;;;;32.67;30.62;97477.04;110071;1248;68641;-71
2022/09/08 10:31:58;;;;;;;4.70;4.20;;;;;;;33.12;30.05;97476.18;110061;1247;59698;-71
2022/09/08 10:34:49;;;;;;;5.30;4.70;;;;;;;33.57;28.94;97472.74;110054;1247;59647;-72
2022/09/08 10:37:36;;;;;;;5.60;4.80;;;;;;;33.51;28.76;97475.29;110099;1247;71475;-71
2022/09/08 10:40:35;;;;;;;5.20;4.70;;;;;;;32.56;29.91;97466.84;110070;1247;69426;-72
2022/09/08 10:43:23;;;;;;;4.90;4.40;;;;;;;33.00;29.49;97468.35;110006;1247;68677;-72
2022/09/08 10:46:10;;;;;;;5.80;5.20;;;;;;;33.01;29.03;97466.85;110077;1247;59725;-71
2022/09/08 10:49:27;;;;;;;5.70;5.20;;;;;;;32.38;29.58;97468.89;110050;1247;59674;-71
2022/09/08 10:52:17;;;;;;;6.50;5.80;;;;;;;32.95;29.84;97464.55;110177;1247;71580;-71
2022/09/08 10:55:18;;;;;;;5.10;4.60;;;;;;;32.80;29.47;97459.52;110112;1247;68748;-71
2022/09/08 10:58:29;;;;;;;5.00;4.40;;;;;;;32.48;31.70;97455.36;110066;1247;69425;-72
2022/09/08 11:01:18;;;;;;;3.80;3.40;;;;;;;33.47;30.66;97450.59;110067;1247;59699;-70
2022/09/08 11:04:18;;;;;;;4.90;4.10;;;;;;;34.31;29.58;97449.95;110101;1247;59757;-71
2022/09/08 11:07:04;;;;;;;5.20;4.70;;;;;;;34.61;27.87;97450.58;110197;1247;71327;-71
2022/09/08 11:09:50;;;;;;;4.60;4.20;;;;;;;34.26;29.04;97445.94;110165;1246;69267;-71
2022/09/08 11:13:14;;;;;;;4.40;4.00;;;;;;;35.25;27.59;97443.16;110135;1247;68329;-71
2022/09/08 11:16:10;;;;;;;5.80;5.20;;;;;;;35.72;26.23;97434.39;110092;1247;59642;-72
2022/09/08 11:18:57;;;;;;;5.40;4.90;;;;;;;34.79;27.70;97433.08;110147;1247;59691;-71
2022/09/08 11:22:07;;;;;;;6.20;5.30;;;;;;;34.29;28.31;97425.62;110139;1247;70691;-72
2022/09/08 11:25:04;;;;;;;6.00;5.40;;;;;;;33.40;28.99;97424.01;110156;1247;68652;-72
2022/09/08 11:27:44;;;;;;;4.90;4.40;;;;;;;34.57;28.04;97423.77;110184;1247;69762;-70
2022/09/08 11:30:21;;;;;;;5.90;5.40;;;;;;;34.14;27.82;97422.41;110156;1247;59691;-70
2022/09/08 11:32:58;;;;;;;5.40;4.90;;;;;;;33.38;28.93;97418.88;110262;1247;59755;-71
2022/09/08 11:35:49;;;;;;;5.20;4.70;;;;;;;32.65;30.09;97412.73;110356;1247;70717;-71
2022/09/08 11:38:46;;;;;;;5.00;4.50;;;;;;;33.97;30.05;97411.16;110170;1247;69478;-71
2022/09/08 11:41:32;;;;;;;6.70;4.80;;;;;;;35.01;27.74;97408.32;110205;1247;69516;-71
2022/09/08 11:44:19;;;;;;;5.10;4.70;;;;;;;35.53;27.38;97404.23;110130;1247;59682;-72
2022/09/08 11:47:09;;;;;;;6.30;5.70;;;;;;;34.69;27.56;97406.22;110132;1247;60006;-71
2022/09/08 11:50:06;;;;;;;5.80;5.30;;;;;;;34.27;27.96;97402.75;110208;1247;71349;-71
2022/09/08 11:53:09;;;;;;;6.70;6.10;;;;;;;33.18;29.38;97398.73;109863;1247;68638;-68
2022/09/08 11:56:33;;;;;;;7.50;5.40;;;;;;;34.12;28.32;97390.38;109949;1247;68601;-70
2022/09/08 11:59:19;;;;;;;5.70;5.20;;;;;;;33.49;28.80;97385.31;109468;1247;59698;-69
2022/09/08 12:01:58;;;;;;;5.50;5.00;;;;;;;33.13;29.01;97383.52;110150;1247;59696;-71
2022/09/08 12:05:02;;;;;;;5.30;4.80;;;;;;;33.77;28.52;97384.39;110131;1248;70755;-72
2022/09/08 12:08:19;;;;;;;5.60;5.10;;;;;;;32.64;29.19;97387.81;110089;1247;68785;-73
2022/09/08 12:10:59;;;;;;;5.00;4.50;;;;;;;33.75;28.97;97382.91;110206;1247;68573;-72
2022/09/08 12:13:34;;;;;;;5.10;4.70;;;;;;;34.21;27.40;97381.96;110165;1247;60050;-72
2022/09/08 12:16:05;;;;;;;5.10;4.70;;;;;;;34.30;28.27;97382.92;110092;1247;59648;-72
2022/09/08 12:19:00;;;;;;;6.40;5.80;;;;;;;34.71;27.17;97383.70;110093;1247;70813;-72
2022/09/08 12:21:36;;;;;;;5.60;5.10;;;;;;;34.83;26.69;97387.71;110067;1247;68754;-70
2022/09/08 12:24:24;;;;;;;5.40;4.90;;;;;;;34.30;27.17;97382.16;110105;1247;68621;-71
2022/09/08 12:26:58;;;;;;;;;;;;;;;34.70;26.63;97379.36;110182;1247;59752;-70
2022/09/08 12:30:05;;;;;;;5.30;4.80;;;;;;;35.22;26.13;97380.09;108594;1247;1915803;-70